createdAt,value
2022-08-16T00:03:44.957Z,31.70
2022-08-16T00:08:49.563Z,31.60
2022-08-16T00:13:55.684Z,31.60
2022-08-16T00:19:00.695Z,31.60
2022-08-16T00:24:06.333Z,31.50
2022-08-16T00:29:17.266Z,31.40
2022-08-16T00:34:22.228Z,31.40
2022-08-16T00:39:47.609Z,31.30
2022-08-16T00:44:56.277Z,31.20
2022-08-16T00:49:59.500Z,31.20
2022-08-16T00:55:08.503Z,31.20
2022-08-16T01:00:13.326Z,31.10
2022-08-16T01:05:24.017Z,31.10
2022-08-16T01:10:33.624Z,31.10
2022-08-16T01:15:43.078Z,31.10
2022-08-16T01:20:54.562Z,31.20
2022-08-16T01:26:34.768Z,31.10
2022-08-16T01:31:31.028Z,31.00
2022-08-16T01:36:36.876Z,31.00
2022-08-16T01:41:42.333Z,30.90
2022-08-16T01:46:49.557Z,30.80
2022-08-16T01:52:01.798Z,30.70
2022-08-16T01:57:16.215Z,30.70
2022-08-16T02:02:27.145Z,30.70
2022-08-16T02:07:31.835Z,30.70
2022-08-16T02:12:50.788Z,30.70
2022-08-16T02:18:01.635Z,30.60
2022-08-16T02:23:06.172Z,30.60
2022-08-16T02:28:11.258Z,30.60
2022-08-16T02:33:15.475Z,30.60
2022-08-16T02:38:19.889Z,30.60
2022-08-16T02:43:27.352Z,30.60
2022-08-16T02:48:34.809Z,30.60
2022-08-16T02:53:46.212Z,30.60
2022-08-16T02:58:53.323Z,30.50
2022-08-16T03:04:39.315Z,30.50
2022-08-16T03:09:23.230Z,30.50
2022-08-16T03:14:32.834Z,30.40
2022-08-16T03:19:48.655Z,30.40
2022-08-16T03:25:02.209Z,30.40
2022-08-16T03:30:17.549Z,30.40
2022-08-16T03:35:43.038Z,30.30
2022-08-16T03:41:14.308Z,30.30
2022-08-16T03:46:48.215Z,30.40
2022-08-16T03:52:03.479Z,30.40
2022-08-16T03:57:11.457Z,30.40
2022-08-16T04:02:22.303Z,30.40
2022-08-16T04:07:34.990Z,30.30
2022-08-16T04:12:53.309Z,30.40
2022-08-16T04:18:01.616Z,30.40
2022-08-16T04:23:08.126Z,30.40
2022-08-16T04:28:29.688Z,30.40
2022-08-16T04:33:39.025Z,30.40
2022-08-16T04:38:57.457Z,30.40
2022-08-16T04:44:01.034Z,30.50
2022-08-16T04:49:08.094Z,30.50
2022-08-16T04:54:11.890Z,30.50
2022-08-16T04:59:16.988Z,30.50
2022-08-16T05:04:22.411Z,30.50
2022-08-16T05:09:26.499Z,30.50
2022-08-16T05:14:45.281Z,30.50
2022-08-16T05:19:58.032Z,30.50
2022-08-16T05:25:14.072Z,30.60
2022-08-16T05:30:35.792Z,30.50
2022-08-16T05:35:55.489Z,30.60
2022-08-16T05:41:31.479Z,30.60
2022-08-16T05:46:36.436Z,30.70
2022-08-16T05:51:55.493Z,30.70
2022-08-16T05:57:00.035Z,30.70
2022-08-16T06:02:06.176Z,30.60
2022-08-16T06:07:24.887Z,30.60
2022-08-16T06:12:39.970Z,30.50
2022-08-16T06:17:44.749Z,30.40
2022-08-16T06:23:03.940Z,30.40
2022-08-16T06:28:36.443Z,30.30
2022-08-16T06:33:45.484Z,30.30
2022-08-16T06:38:56.127Z,30.30
2022-08-16T06:44:21.085Z,30.30
2022-08-16T06:49:30.490Z,30.30
2022-08-16T06:54:37.013Z,30.30
2022-08-16T06:59:52.307Z,30.20
2022-08-16T07:05:03.361Z,30.30
2022-08-16T07:10:25.813Z,30.30
2022-08-16T07:15:30.323Z,30.30
2022-08-16T07:20:37.574Z,30.40
2022-08-16T07:25:53.477Z,30.40
2022-08-16T07:31:00.012Z,30.60
2022-08-16T07:36:10.819Z,30.70
2022-08-16T07:41:20.077Z,30.80
2022-08-16T07:46:38.571Z,30.90
2022-08-16T07:52:18.997Z,30.90
2022-08-16T07:57:27.009Z,31.00
2022-08-16T08:02:31.467Z,31.20
2022-08-16T08:07:36.781Z,31.20
2022-08-16T08:12:42.081Z,31.30
2022-08-16T08:17:50.479Z,31.40
2022-08-16T08:23:01.820Z,31.50
2022-08-16T08:28:20.061Z,31.60
2022-08-16T08:33:25.204Z,31.70
2022-08-16T08:38:45.985Z,31.90
2022-08-16T08:43:57.206Z,32.00
2022-08-16T08:49:02.313Z,32.10
2022-08-16T08:54:18.835Z,32.20
2022-08-16T08:59:28.921Z,32.30
2022-08-16T09:04:33.570Z,32.40
2022-08-16T09:09:41.086Z,32.60
2022-08-16T09:14:51.856Z,32.70
2022-08-16T09:20:04.717Z,32.90
2022-08-16T09:25:11.374Z,33.00
2022-08-16T09:30:36.231Z,33.20
2022-08-16T09:35:42.504Z,33.40
2022-08-16T09:40:48.277Z,33.40
2022-08-16T09:45:54.522Z,33.60
2022-08-16T09:50:58.444Z,33.80
2022-08-16T09:56:02.263Z,34.00
2022-08-16T10:01:08.320Z,34.20
2022-08-16T10:06:11.922Z,34.30
2022-08-16T10:11:32.927Z,34.60
2022-08-16T10:16:59.578Z,34.70
2022-08-16T10:22:05.276Z,35.00
2022-08-16T10:27:25.456Z,35.20
2022-08-16T10:32:33.822Z,35.50
2022-08-16T10:37:38.394Z,35.70
2022-08-16T10:42:41.735Z,35.90
2022-08-16T10:47:46.569Z,36.10
2022-08-16T10:52:50.672Z,36.30
2022-08-16T10:58:11.360Z,36.60
2022-08-16T11:08:45.306Z,37.00
2022-08-16T11:14:00.139Z,37.20
2022-08-16T11:19:16.596Z,37.40
2022-08-16T11:24:41.919Z,37.60
2022-08-16T11:29:43.016Z,37.80
2022-08-16T11:35:09.969Z,38.00
2022-08-16T11:40:12.227Z,38.10
2022-08-16T11:45:17.957Z,38.30
2022-08-16T11:50:24.601Z,38.40
2022-08-16T11:55:28.261Z,38.50
2022-08-16T12:00:33.502Z,38.70
2022-08-16T12:05:56.394Z,38.80
2022-08-16T12:11:02.328Z,39.00
2022-08-16T12:16:09.191Z,39.00
2022-08-16T12:21:14.144Z,39.10
2022-08-16T12:26:17.446Z,39.20
2022-08-16T12:31:20.812Z,39.30
2022-08-16T12:36:29.693Z,39.40
2022-08-16T12:41:34.765Z,39.50
2022-08-16T12:46:38.550Z,39.60
2022-08-16T12:51:59.429Z,39.70
2022-08-16T12:57:03.376Z,39.70
2022-08-16T13:02:07.658Z,39.90
2022-08-16T13:07:18.174Z,40.00
2022-08-16T13:12:30.582Z,40.10
2022-08-16T13:17:33.860Z,40.20
2022-08-16T13:22:43.676Z,40.30
2022-08-16T13:28:02.280Z,40.40
2022-08-16T13:33:12.518Z,40.50
2022-08-16T13:38:24.774Z,40.60
2022-08-16T13:43:32.687Z,40.60
2022-08-16T13:48:43.111Z,40.80
2022-08-16T13:53:59.805Z,40.80
2022-08-16T13:59:06.620Z,40.90
2022-08-16T14:04:26.598Z,41.00
2022-08-16T14:09:32.423Z,41.00
2022-08-16T14:14:36.145Z,41.10
2022-08-16T14:19:45.043Z,41.10
2022-08-16T14:24:53.165Z,41.10
2022-08-16T14:29:59.167Z,41.10
2022-08-16T14:35:08.346Z,41.00
2022-08-16T14:40:16.844Z,41.00
2022-08-16T14:45:25.053Z,40.90
2022-08-16T14:50:30.416Z,40.70
2022-08-16T14:55:36.907Z,40.60
2022-08-16T15:00:44.514Z,40.40
2022-08-16T15:05:49.423Z,40.20
2022-08-16T15:10:58.511Z,40.00
2022-08-16T15:16:03.096Z,39.70
2022-08-16T15:21:08.638Z,39.50
2022-08-16T15:26:18.875Z,39.30
2022-08-16T15:31:37.604Z,39.00
2022-08-16T15:36:41.092Z,38.80
2022-08-16T15:42:02.877Z,38.60
2022-08-16T15:47:09.473Z,38.40
2022-08-16T15:52:20.637Z,38.20
2022-08-16T15:57:41.195Z,38.00
2022-08-16T16:02:46.914Z,37.80
2022-08-16T16:07:56.574Z,37.70
2022-08-16T16:13:15.883Z,37.50
2022-08-16T16:18:20.560Z,37.40
2022-08-16T16:23:26.541Z,37.30
2022-08-16T16:29:05.541Z,37.10
2022-08-16T16:34:00.943Z,37.00
2022-08-16T16:39:07.443Z,36.90
2022-08-16T16:44:18.292Z,36.80
2022-08-16T16:49:35.543Z,36.60
2022-08-16T16:54:44.966Z,36.60
2022-08-16T16:59:55.776Z,36.40
2022-08-16T17:04:59.218Z,36.30
2022-08-16T17:10:03.650Z,36.20
2022-08-16T17:15:09.176Z,36.20
2022-08-16T17:20:13.397Z,36.10
2022-08-16T17:25:16.582Z,36.00
2022-08-16T17:30:29.639Z,35.90
2022-08-16T17:35:55.640Z,35.90
2022-08-16T17:41:00.005Z,35.80
2022-08-16T17:46:06.541Z,35.70
2022-08-16T17:51:29.839Z,35.70
2022-08-16T17:56:33.136Z,35.60
2022-08-16T18:01:37.975Z,35.50
2022-08-16T18:06:41.400Z,35.50
2022-08-16T18:11:44.768Z,35.40
2022-08-16T18:16:49.465Z,35.30
2022-08-16T18:22:09.847Z,35.30
2022-08-16T18:27:24.979Z,35.20
2022-08-16T18:32:31.617Z,35.10
2022-08-16T18:37:34.851Z,35.00
2022-08-16T18:42:38.788Z,35.10
2022-08-16T18:47:43.378Z,35.00
2022-08-16T18:52:51.630Z,35.00
2022-08-16T18:57:54.920Z,34.90
2022-08-16T19:03:06.277Z,34.80
2022-08-16T19:08:14.464Z,34.80
2022-08-16T19:13:19.954Z,34.70
2022-08-16T19:18:25.107Z,34.60
2022-08-16T19:23:33.273Z,34.50
2022-08-16T19:28:52.087Z,33.70
2022-08-16T19:34:04.984Z,34.10
2022-08-16T19:39:10.527Z,34.20
2022-08-16T19:44:14.467Z,34.30
2022-08-16T19:49:19.376Z,34.20
2022-08-16T19:54:23.046Z,34.20
2022-08-16T19:59:39.307Z,34.10
2022-08-16T20:04:45.755Z,33.90
2022-08-16T20:09:52.269Z,33.80
2022-08-16T20:14:56.230Z,33.80
2022-08-16T20:20:01.271Z,33.70
2022-08-16T20:25:08.423Z,33.60
2022-08-16T20:30:14.899Z,33.50
2022-08-16T20:35:22.366Z,33.40
2022-08-16T20:40:34.525Z,33.30
2022-08-16T20:45:40.801Z,33.30
2022-08-16T20:50:45.519Z,33.20
2022-08-16T20:55:49.198Z,33.10
2022-08-16T21:00:52.418Z,33.10
2022-08-16T21:05:59.189Z,33.00
2022-08-16T21:11:05.136Z,32.90
2022-08-16T21:16:08.791Z,32.80
2022-08-16T21:21:13.496Z,32.80
2022-08-16T21:26:16.719Z,32.80
2022-08-16T21:31:20.225Z,32.80
2022-08-16T21:36:34.895Z,32.70
2022-08-16T21:41:39.675Z,32.60
2022-08-16T21:46:42.996Z,32.60
2022-08-16T21:51:47.744Z,32.60
2022-08-16T21:56:51.238Z,32.50
2022-08-16T22:01:54.566Z,32.50
2022-08-16T22:06:59.423Z,32.40
2022-08-16T22:12:02.659Z,32.40
2022-08-16T22:17:05.935Z,32.30
2022-08-16T22:22:12.823Z,32.30
2022-08-16T22:27:16.165Z,32.20
2022-08-16T22:32:19.398Z,32.20
2022-08-16T22:37:23.990Z,32.20
2022-08-16T22:42:30.042Z,32.10
2022-08-16T22:47:33.291Z,32.10
2022-08-16T22:52:56.856Z,32.00
2022-08-16T22:58:00.361Z,32.00
2022-08-16T23:03:06.465Z,32.00
2022-08-16T23:08:14.225Z,32.00
2022-08-16T23:13:35.421Z,32.00
2022-08-16T23:18:38.920Z,31.90
2022-08-16T23:23:43.480Z,31.90
2022-08-16T23:28:46.686Z,31.90
2022-08-16T23:33:49.837Z,31.80
2022-08-16T23:38:54.647Z,31.80
2022-08-16T23:43:57.884Z,31.80
2022-08-16T23:49:57.666Z,31.80
2022-08-16T23:54:30.199Z,31.70
2022-08-16T23:59:48.680Z,31.70
